Willow Grove, Texas
Current Conditions -  °F | °C
As of 5:35 AM on Thursday 27 Nov 2014 (Local Time) from KTPL Reporting Station
Clear Clear  
Wind Chill:   Ceiling: Unl
Heat Index:   Visibility: 10mi
Dew Point: -1°   Wind: 6mph
Humidity: 70%   Direction: 360°N
Pressure: 30.46"   Gusts: NA
Location:  31.2688°N, 97.3985°W
Report Text: KTPL 271135Z AUTO 36005KT 10SM CLR 04/M01 A3046 RMK AO1
Loading
Personal Weather Stations






























Interactive Weather Map New forecast layout! Learn more

10-Day Weather Forecast

Advertisements
Track Severe Weather on mobile